createdAt,value
2019-05-21T00:00:31.212Z,10.87
2019-05-21T00:03:08.362Z,10.73
2019-05-21T00:05:45.439Z,11.70
2019-05-21T00:08:22.608Z,10.27
2019-05-21T00:10:59.879Z,10.63
2019-05-21T00:13:37.031Z,12.50
2019-05-21T00:16:14.138Z,11.07
2019-05-21T00:18:51.311Z,13.67
2019-05-21T00:21:28.423Z,8.47
2019-05-21T00:24:05.819Z,9.30
2019-05-21T00:26:43.040Z,11.10
2019-05-21T00:29:57.294Z,9.07
2019-05-21T00:33:11.304Z,11.47
2019-05-21T00:36:27.261Z,9.80
2019-05-21T00:39:41.463Z,12.67
2019-05-21T00:42:30.842Z,12.47
2019-05-21T00:45:11.602Z,11.30
2019-05-21T00:47:48.947Z,10.23
2019-05-21T00:50:26.257Z,12.10
2019-05-21T00:53:03.556Z,10.17
2019-05-21T00:55:44.627Z,10.27
2019-05-21T00:58:23.059Z,9.10
2019-05-21T01:01:04.103Z,8.37
2019-05-21T01:03:43.302Z,9.83
2019-05-21T01:06:20.508Z,11.57
2019-05-21T01:08:57.851Z,8.63
2019-05-21T01:11:34.992Z,9.73
2019-05-21T01:14:12.178Z,10.07
2019-05-21T01:16:49.285Z,9.07
2019-05-21T01:19:26.464Z,9.87
2019-05-21T01:22:03.575Z,10.13
2019-05-21T01:24:40.844Z,9.07
2019-05-21T01:27:18.030Z,8.43
2019-05-21T01:29:56.586Z,10.17
2019-05-21T01:32:33.590Z,8.30
2019-05-21T01:35:17.332Z,9.53
2019-05-21T01:37:49.598Z,9.93
2019-05-21T01:40:26.649Z,10.50
2019-05-21T01:43:03.729Z,14.13
2019-05-21T01:45:40.799Z,32.67
2019-05-21T01:48:17.906Z,11.67
2019-05-21T01:50:55.084Z,10.87
2019-05-21T01:53:32.203Z,9.97
2019-05-21T01:56:09.345Z,9.50
2019-05-21T01:58:46.518Z,10.43
2019-05-21T02:01:23.716Z,10.63
2019-05-21T02:04:00.916Z,10.07
2019-05-21T02:06:39.732Z,11.07
2019-05-21T02:09:17.660Z,14.43
2019-05-21T02:11:54.839Z,18.57
2019-05-21T02:14:31.923Z,13.03
2019-05-21T02:17:09.076Z,10.60
2019-05-21T02:19:46.187Z,8.57
2019-05-21T02:22:23.394Z,10.10
2019-05-21T02:25:00.653Z,10.50
2019-05-21T02:27:38.140Z,10.03
2019-05-21T02:30:15.303Z,11.17
2019-05-21T02:32:52.461Z,10.23
2019-05-21T02:35:30.070Z,10.63
2019-05-21T02:38:07.188Z,12.83
2019-05-21T02:40:44.331Z,11.87
2019-05-21T02:43:21.451Z,10.13
2019-05-21T02:45:58.595Z,8.87
2019-05-21T02:48:36.178Z,11.10
2019-05-21T02:51:13.369Z,14.40
2019-05-21T02:53:50.527Z,10.23
2019-05-21T02:56:27.708Z,13.33
2019-05-21T02:59:04.890Z,12.87
2019-05-21T03:01:43.655Z,11.87
2019-05-21T03:04:20.797Z,11.83
2019-05-21T03:06:59.527Z,14.70
2019-05-21T03:09:36.675Z,14.27
2019-05-21T03:12:13.981Z,12.13
2019-05-21T03:14:51.835Z,11.57
2019-05-21T03:17:28.950Z,11.47
2019-05-21T03:20:07.360Z,10.50
2019-05-21T03:22:44.424Z,10.90
2019-05-21T03:25:21.606Z,12.20
2019-05-21T03:27:58.743Z,18.60
2019-05-21T03:30:35.911Z,18.93
2019-05-21T03:33:12.973Z,13.83
2019-05-21T03:35:50.143Z,12.83
2019-05-21T03:38:27.210Z,13.07
2019-05-21T03:41:04.327Z,14.70
2019-05-21T03:43:41.366Z,12.13
2019-05-21T03:46:18.502Z,10.73
2019-05-21T03:48:55.603Z,9.57
2019-05-21T03:51:36.094Z,11.70
2019-05-21T03:54:13.244Z,12.40
2019-05-21T03:56:50.446Z,11.00
2019-05-21T03:59:27.535Z,15.03
2019-05-21T04:02:04.711Z,11.80
2019-05-21T04:04:41.854Z,15.20
2019-05-21T04:07:19.010Z,18.57
2019-05-21T04:09:56.126Z,12.17
2019-05-21T04:12:33.247Z,12.63
2019-05-21T04:15:18.316Z,11.50
2019-05-21T04:17:57.123Z,13.23
2019-05-21T04:20:34.244Z,11.77
2019-05-21T04:23:11.374Z,11.97
2019-05-21T04:25:48.494Z,13.07
2019-05-21T04:28:25.621Z,15.27
2019-05-21T04:31:04.387Z,18.80
2019-05-21T04:33:41.580Z,17.13
2019-05-21T04:36:18.957Z,13.93
2019-05-21T04:38:56.739Z,17.60
2019-05-21T04:41:36.871Z,14.93
2019-05-21T04:44:14.550Z,14.90
2019-05-21T04:46:52.339Z,17.57
2019-05-21T04:49:29.939Z,16.47
2019-05-21T04:52:07.177Z,21.60
2019-05-21T04:54:44.322Z,20.43
2019-05-21T04:57:21.336Z,19.07
2019-05-21T04:59:58.499Z,19.70
2019-05-21T05:02:35.660Z,16.43
2019-05-21T05:05:12.876Z,16.83
2019-05-21T05:07:50.328Z,16.43
2019-05-21T05:10:27.603Z,14.80
2019-05-21T05:13:04.808Z,15.17
2019-05-21T05:15:42.164Z,13.87
2019-05-21T05:18:19.413Z,14.53
2019-05-21T05:20:56.892Z,13.20
2019-05-21T05:23:34.378Z,13.53
2019-05-21T05:26:11.597Z,12.90
2019-05-21T05:28:48.711Z,14.60
2019-05-21T05:31:25.879Z,12.20
2019-05-21T05:34:03.530Z,12.93
2019-05-21T05:36:47.350Z,14.63
2019-05-21T05:39:24.495Z,13.87
2019-05-21T05:42:01.978Z,12.07
2019-05-21T05:44:39.222Z,13.47
2019-05-21T05:47:16.391Z,13.23
2019-05-21T05:49:55.136Z,10.07
2019-05-21T05:52:32.307Z,10.90
2019-05-21T05:55:09.593Z,11.30
2019-05-21T05:57:46.944Z,9.73
2019-05-21T06:00:24.083Z,11.47
2019-05-21T06:03:01.246Z,10.53
2019-05-21T06:05:38.766Z,12.43
2019-05-21T06:08:15.919Z,11.20
2019-05-21T06:10:53.033Z,12.03
2019-05-21T06:13:30.285Z,13.63
2019-05-21T06:16:07.386Z,13.67
2019-05-21T06:18:44.577Z,10.57
2019-05-21T06:21:22.699Z,12.23
2019-05-21T06:23:59.891Z,11.23
2019-05-21T06:26:37.056Z,15.40
2019-05-21T06:29:14.265Z,12.30
2019-05-21T06:31:51.367Z,11.27
2019-05-21T06:34:28.938Z,11.30
2019-05-21T06:37:06.326Z,9.70
2019-05-21T06:39:43.449Z,9.90
2019-05-21T06:42:20.572Z,13.00
2019-05-21T06:44:57.731Z,12.60
2019-05-21T06:47:34.819Z,13.03
2019-05-21T06:50:12.935Z,11.03
2019-05-21T06:52:51.332Z,9.83
2019-05-21T06:55:34.950Z,12.03
2019-05-21T06:58:12.035Z,11.73
2019-05-21T07:00:49.175Z,11.00
2019-05-21T07:03:26.911Z,9.13
2019-05-21T07:06:04.355Z,10.73
2019-05-21T07:08:41.482Z,8.18
2019-05-21T07:11:19.188Z,8.88
2019-05-21T07:13:56.373Z,9.10
2019-05-21T07:16:34.182Z,8.38
2019-05-21T07:19:12.050Z,7.87
2019-05-21T07:21:49.891Z,8.53
2019-05-21T07:24:28.452Z,7.47
2019-05-21T07:27:06.003Z,9.03
2019-05-21T07:29:43.146Z,11.63
2019-05-21T07:32:20.293Z,12.67
2019-05-21T07:34:57.392Z,14.83
2019-05-21T07:37:34.504Z,8.77
2019-05-21T07:40:11.656Z,7.53
2019-05-21T07:42:49.351Z,7.97
2019-05-21T07:45:26.476Z,7.50
2019-05-21T07:48:03.675Z,8.13
2019-05-21T07:50:40.787Z,7.55
2019-05-21T07:53:17.974Z,6.58
2019-05-21T07:55:55.272Z,6.10
2019-05-21T07:58:32.956Z,6.58
2019-05-21T08:01:10.036Z,7.28
2019-05-21T08:03:47.760Z,9.13
2019-05-21T08:06:25.540Z,9.40
2019-05-21T08:09:13.407Z,5.72
2019-05-21T08:11:47.037Z,6.85
2019-05-21T08:14:24.385Z,8.08
2019-05-21T08:17:02.020Z,7.75
2019-05-21T08:19:39.786Z,8.35
2019-05-21T08:22:17.474Z,4.92
2019-05-21T08:24:55.162Z,5.25
2019-05-21T08:27:32.847Z,4.80
2019-05-21T08:30:11.026Z,6.45
2019-05-21T08:32:48.726Z,4.95
2019-05-21T08:35:26.375Z,6.50
2019-05-21T08:38:06.642Z,4.53
2019-05-21T08:40:43.356Z,4.40
2019-05-21T08:43:22.339Z,4.00
2019-05-21T08:46:00.000Z,4.05
2019-05-21T08:48:37.676Z,2.85
2019-05-21T08:51:15.478Z,3.15
2019-05-21T08:53:53.462Z,4.10
2019-05-21T08:56:31.117Z,4.20
2019-05-21T08:59:08.778Z,3.27
2019-05-21T09:01:46.453Z,4.17
2019-05-21T09:04:45.038Z,2.33
2019-05-21T09:07:05.794Z,3.12
2019-05-21T09:09:49.759Z,3.77
2019-05-21T09:12:22.781Z,3.80
2019-05-21T09:15:00.561Z,4.58
2019-05-21T09:17:38.315Z,3.60
2019-05-21T09:20:16.289Z,3.62
2019-05-21T09:22:54.138Z,3.90
2019-05-21T09:25:31.994Z,3.47
2019-05-21T09:28:09.615Z,3.10
2019-05-21T09:30:47.311Z,6.17
2019-05-21T09:33:25.035Z,4.80
2019-05-21T09:36:02.690Z,3.05
2019-05-21T09:38:40.403Z,5.35
2019-05-21T09:41:18.056Z,3.40
2019-05-21T09:43:55.790Z,5.25
2019-05-21T09:46:33.507Z,5.17
2019-05-21T09:49:11.225Z,3.77
2019-05-21T09:51:48.966Z,7.47
2019-05-21T09:54:26.599Z,4.92
2019-05-21T09:57:05.906Z,2.83
2019-05-21T09:59:51.311Z,4.15
2019-05-21T10:02:30.635Z,4.97
2019-05-21T10:05:08.438Z,2.87
2019-05-21T10:07:46.172Z,5.62
2019-05-21T10:10:23.882Z,3.65
2019-05-21T10:13:01.563Z,4.78
2019-05-21T10:15:39.301Z,3.10
2019-05-21T10:18:16.965Z,3.55
2019-05-21T10:20:54.671Z,3.20
2019-05-21T10:23:32.335Z,4.12
2019-05-21T10:26:13.062Z,3.25
2019-05-21T10:28:50.688Z,2.75
2019-05-21T10:31:28.425Z,2.42
2019-05-21T10:34:06.042Z,4.62
2019-05-21T10:36:43.789Z,3.30
2019-05-21T10:39:21.609Z,4.20
2019-05-21T10:41:59.969Z,3.37
2019-05-21T10:44:39.036Z,3.37
2019-05-21T10:47:17.501Z,6.15
2019-05-21T10:50:02.302Z,4.40
2019-05-21T10:52:41.122Z,3.60
2019-05-21T10:55:19.193Z,2.52
2019-05-21T10:57:57.348Z,3.65
2019-05-21T11:00:36.177Z,4.67
2019-05-21T11:03:22.030Z,4.60
2019-05-21T11:06:09.696Z,3.60
2019-05-21T11:08:39.063Z,2.60
2019-05-21T11:11:20.994Z,2.37
2019-05-21T11:13:56.084Z,2.20
2019-05-21T11:16:36.819Z,2.85
2019-05-21T11:19:14.570Z,2.92
2019-05-21T11:21:52.290Z,2.37
2019-05-21T11:24:30.017Z,3.58
2019-05-21T11:27:07.734Z,3.25
2019-05-21T11:29:45.492Z,2.80
2019-05-21T11:32:23.124Z,2.58
2019-05-21T11:35:00.875Z,1.95
2019-05-21T11:37:38.583Z,3.10
2019-05-21T11:40:16.333Z,1.87
2019-05-21T11:42:54.003Z,3.87
2019-05-21T11:45:33.099Z,2.37
2019-05-21T11:48:10.957Z,10.08
2019-05-21T11:50:49.990Z,4.92
2019-05-21T11:53:31.601Z,2.75
2019-05-21T11:56:06.999Z,2.30
2019-05-21T11:58:44.671Z,2.47
2019-05-21T12:01:22.391Z,2.95
2019-05-21T12:04:00.075Z,5.35
2019-05-21T12:06:37.830Z,6.72
2019-05-21T12:09:15.522Z,3.27
2019-05-21T12:11:53.274Z,3.52
2019-05-21T12:14:30.935Z,2.70
2019-05-21T12:17:08.663Z,3.65
2019-05-21T12:19:46.350Z,3.65
2019-05-21T12:22:32.119Z,2.55
2019-05-21T12:25:09.787Z,2.83
2019-05-21T12:27:47.548Z,3.55
2019-05-21T12:30:26.162Z,4.10
2019-05-21T12:33:03.988Z,4.30
2019-05-21T12:35:41.748Z,3.37
2019-05-21T12:38:21.114Z,4.80
2019-05-21T12:41:02.144Z,3.85
2019-05-21T12:43:41.446Z,4.95
2019-05-21T12:46:19.186Z,3.90
2019-05-21T12:48:56.791Z,7.22
2019-05-21T12:51:34.511Z,3.65
2019-05-21T12:54:12.351Z,4.85
2019-05-21T12:56:50.515Z,5.25
2019-05-21T12:59:31.485Z,4.97
2019-05-21T13:02:09.183Z,5.47
2019-05-21T13:04:46.849Z,3.65
2019-05-21T13:07:24.594Z,3.62
2019-05-21T13:10:02.368Z,4.08
2019-05-21T13:12:40.084Z,3.70
2019-05-21T13:15:17.787Z,3.10
2019-05-21T13:17:55.483Z,2.70
2019-05-21T13:20:33.167Z,3.33
2019-05-21T13:23:12.563Z,4.45
2019-05-21T13:25:50.322Z,4.70
2019-05-21T13:28:27.931Z,8.33
2019-05-21T13:31:07.298Z,6.97
2019-05-21T13:33:45.046Z,47.95
2019-05-21T13:36:22.739Z,6.22
2019-05-21T13:39:00.436Z,3.27
2019-05-21T13:41:38.682Z,3.62
2019-05-21T13:44:16.463Z,3.72
2019-05-21T13:46:54.066Z,5.83
2019-05-21T13:49:33.582Z,3.60
2019-05-21T13:52:12.347Z,2.87
2019-05-21T13:54:56.753Z,6.12
2019-05-21T13:57:34.464Z,6.37
2019-05-21T14:00:14.155Z,4.05
2019-05-21T14:02:54.711Z,3.77
2019-05-21T14:05:32.775Z,4.00
2019-05-21T14:08:10.393Z,4.10
2019-05-21T14:10:49.718Z,3.47
2019-05-21T14:13:27.470Z,4.42
2019-05-21T14:16:05.199Z,4.45
2019-05-21T14:18:42.905Z,3.60
2019-05-21T14:21:21.963Z,8.00
2019-05-21T14:23:59.662Z,5.08
2019-05-21T14:26:37.354Z,5.25
2019-05-21T14:29:15.070Z,3.25
2019-05-21T14:31:52.767Z,5.67
2019-05-21T14:34:30.470Z,3.70
2019-05-21T14:37:08.130Z,4.58
2019-05-21T14:39:45.822Z,5.50
2019-05-21T14:42:23.599Z,3.95
2019-05-21T14:45:01.297Z,3.55
2019-05-21T14:47:39.044Z,3.55
2019-05-21T14:50:16.824Z,6.80
2019-05-21T14:52:54.514Z,3.35
2019-05-21T14:55:32.290Z,4.15
2019-05-21T14:58:10.010Z,13.55
2019-05-21T15:00:47.816Z,5.03
2019-05-21T15:03:25.817Z,5.42
2019-05-21T15:06:03.508Z,7.28
2019-05-21T15:08:41.261Z,14.05
2019-05-21T15:11:19.061Z,12.68
2019-05-21T15:13:56.729Z,3.60
2019-05-21T15:16:36.113Z,7.45
2019-05-21T15:19:13.844Z,5.80
2019-05-21T15:21:53.308Z,5.30
2019-05-21T15:24:33.477Z,5.22
2019-05-21T15:27:10.552Z,4.45
2019-05-21T15:29:50.008Z,8.80
2019-05-21T15:32:28.615Z,4.53
2019-05-21T15:35:07.106Z,5.60
2019-05-21T15:37:45.359Z,4.80
2019-05-21T15:40:23.085Z,4.75
2019-05-21T15:43:00.821Z,5.22
2019-05-21T15:45:38.484Z,12.58
2019-05-21T15:48:16.246Z,7.85
2019-05-21T15:50:53.927Z,6.42
2019-05-21T15:53:31.649Z,8.38
2019-05-21T15:56:09.415Z,7.08
2019-05-21T15:58:47.175Z,6.85
2019-05-21T16:01:24.859Z,12.70
2019-05-21T16:04:02.612Z,6.42
2019-05-21T16:06:40.364Z,6.85
2019-05-21T16:09:18.198Z,7.80
2019-05-21T16:11:55.986Z,9.38
2019-05-21T16:14:33.783Z,7.87
2019-05-21T16:17:11.495Z,9.85
2019-05-21T16:19:49.257Z,10.00
2019-05-21T16:22:27.011Z,8.10
2019-05-21T16:29:22.171Z,9.95
2019-05-21T16:32:46.440Z,11.95
2019-05-21T16:35:24.141Z,12.13
2019-05-21T16:38:01.504Z,12.33
2019-05-21T16:40:38.629Z,22.73
2019-05-21T16:43:16.302Z,17.67
2019-05-21T16:46:00.873Z,21.27
2019-05-21T16:48:39.626Z,17.90
2019-05-21T16:51:16.753Z,21.03
2019-05-21T16:53:53.959Z,22.90
2019-05-21T16:56:34.963Z,21.90
2019-05-21T16:59:12.226Z,25.10
2019-05-21T17:01:49.403Z,21.40
2019-05-21T17:04:26.595Z,22.87
2019-05-21T17:07:08.432Z,16.73
2019-05-21T17:09:45.636Z,19.83
2019-05-21T17:12:22.812Z,17.20
2019-05-21T17:15:00.106Z,17.70
2019-05-21T17:17:37.369Z,23.27
2019-05-21T17:20:15.858Z,18.90
2019-05-21T17:22:53.233Z,17.27
2019-05-21T17:25:31.139Z,17.30
2019-05-21T17:28:08.956Z,23.27
2019-05-21T17:30:46.505Z,16.93
2019-05-21T17:33:26.331Z,13.60
2019-05-21T17:36:03.993Z,15.67
2019-05-21T17:38:41.315Z,13.60
2019-05-21T17:41:18.501Z,13.30
2019-05-21T17:43:55.621Z,14.07
2019-05-21T17:46:33.119Z,13.17
2019-05-21T17:49:10.261Z,15.23
2019-05-21T17:51:48.356Z,11.00
2019-05-21T17:54:25.513Z,12.57
2019-05-21T17:57:02.710Z,14.13
2019-05-21T17:59:39.831Z,12.87
2019-05-21T18:02:17.802Z,11.50
2019-05-21T18:04:55.022Z,12.60
2019-05-21T18:07:33.556Z,13.73
2019-05-21T18:10:10.843Z,16.57
2019-05-21T18:12:48.151Z,19.10
2019-05-21T18:15:25.296Z,22.50
2019-05-21T18:18:02.871Z,26.87
2019-05-21T18:20:40.111Z,22.27
2019-05-21T18:23:17.304Z,24.47
2019-05-21T18:25:54.459Z,16.90
2019-05-21T18:28:31.794Z,17.00
2019-05-21T18:31:08.971Z,15.63
2019-05-21T18:33:46.222Z,15.10
2019-05-21T18:36:23.346Z,17.60
2019-05-21T18:39:02.720Z,14.93
2019-05-21T18:41:39.874Z,15.97
2019-05-21T18:44:17.287Z,16.33
2019-05-21T18:46:54.499Z,15.43
2019-05-21T18:49:32.868Z,16.63
2019-05-21T18:52:10.008Z,14.37
2019-05-21T18:54:48.045Z,16.47
2019-05-21T18:57:26.015Z,16.87
2019-05-21T19:00:05.167Z,19.53
2019-05-21T19:02:42.361Z,23.07
2019-05-21T19:05:19.515Z,27.60
2019-05-21T19:08:02.663Z,26.13
2019-05-21T19:10:39.813Z,29.13
2019-05-21T19:13:17.047Z,32.17
2019-05-21T19:15:54.298Z,33.30
2019-05-21T19:18:31.503Z,32.47
2019-05-21T19:21:08.659Z,28.13
2019-05-21T19:23:47.197Z,26.07
2019-05-21T19:26:24.372Z,31.50
2019-05-21T19:29:02.151Z,32.37
2019-05-21T19:31:39.346Z,31.87
2019-05-21T19:44:12.194Z,30.23
2019-05-21T19:47:07.318Z,30.67
2019-05-21T19:49:54.203Z,28.50
2019-05-21T19:56:41.728Z,19.43
2019-05-21T20:03:53.817Z,17.60
2019-05-21T20:06:34.390Z,14.53
2019-05-21T20:09:22.775Z,18.10
2019-05-21T20:12:01.736Z,15.73
2019-05-21T20:14:39.277Z,17.97
2019-05-21T20:17:17.200Z,20.93
2019-05-21T20:19:55.901Z,17.83
2019-05-21T20:22:42.727Z,20.67
2019-05-21T20:25:22.355Z,19.33
2019-05-21T20:27:59.573Z,20.77
2019-05-21T20:30:44.840Z,24.27
2019-05-21T20:33:26.548Z,20.73
2019-05-21T20:36:06.718Z,20.33
2019-05-21T20:38:44.289Z,21.93
2019-05-21T20:41:23.479Z,22.00
2019-05-21T20:44:04.399Z,22.43
2019-05-21T20:46:44.074Z,28.50
2019-05-21T20:49:23.832Z,21.43
2019-05-21T20:52:16.117Z,23.60
2019-05-21T20:54:40.860Z,27.27
2019-05-21T20:57:20.206Z,26.00
2019-05-21T20:59:57.472Z,27.60
2019-05-21T21:02:36.529Z,26.70
2019-05-21T21:22:41.502Z,36.80
2019-05-21T21:25:40.112Z,35.83
2019-05-21T21:28:18.038Z,29.90
2019-05-21T21:30:56.242Z,37.77
2019-05-21T21:41:51.869Z,33.17
2019-05-21T21:44:41.012Z,21.60
2019-05-21T21:53:56.670Z,20.70
2019-05-21T21:56:33.827Z,22.83
2019-05-21T21:59:11.335Z,21.13
2019-05-21T22:01:54.542Z,20.97
2019-05-21T22:04:32.447Z,25.27
2019-05-21T22:07:09.702Z,17.17
2019-05-21T22:09:47.297Z,20.13
2019-05-21T22:12:24.934Z,17.07
2019-05-21T22:15:02.669Z,17.90
2019-05-21T22:17:39.937Z,17.40
2019-05-21T22:20:17.644Z,17.10
2019-05-21T22:22:56.644Z,17.37
2019-05-21T22:25:33.989Z,17.87
2019-05-21T22:28:11.938Z,17.07
2019-05-21T22:30:50.195Z,18.53
2019-05-21T22:33:27.621Z,18.27
2019-05-21T22:36:05.445Z,21.97
2019-05-21T22:38:42.688Z,22.47
2019-05-21T22:41:19.964Z,26.83
2019-05-21T22:43:57.143Z,24.03
2019-05-21T22:46:34.454Z,25.73
2019-05-21T22:49:11.666Z,30.90
2019-05-21T22:51:51.874Z,28.33
2019-05-21T22:54:29.221Z,30.40
2019-05-21T22:57:09.260Z,28.97
2019-05-21T22:59:46.705Z,29.07
2019-05-21T23:02:25.606Z,28.23
2019-05-21T23:05:03.996Z,29.70
2019-05-21T23:07:41.288Z,28.90
2019-05-21T23:10:18.727Z,27.63
2019-05-21T23:12:56.085Z,30.73
2019-05-21T23:15:33.241Z,29.93
2019-05-21T23:18:10.756Z,34.17
2019-05-21T23:20:47.943Z,32.27
2019-05-21T23:23:25.926Z,32.17
2019-05-21T23:26:03.058Z,31.77
2019-05-21T23:28:41.111Z,34.43
2019-05-21T23:31:19.131Z,37.53
2019-05-21T23:33:56.528Z,34.73
2019-05-21T23:36:34.348Z,34.83
2019-05-21T23:39:13.253Z,33.47
2019-05-21T23:41:50.377Z,37.43
2019-05-21T23:44:27.438Z,42.20
2019-05-21T23:47:06.230Z,39.57
2019-05-21T23:49:43.535Z,36.53
2019-05-21T23:52:21.022Z,42.03
2019-05-21T23:54:58.625Z,38.40
2019-05-21T23:57:37.225Z,48.17
